createdAt,value
2018-05-12T00:00:47.815Z,53.45
2018-05-12T00:01:47.696Z,53.41
2018-05-12T00:02:47.684Z,53.39
2018-05-12T00:03:47.714Z,53.47
2018-05-12T00:04:47.721Z,53.37
2018-05-12T00:05:48.255Z,53.4
2018-05-12T00:06:47.742Z,53.46
2018-05-12T00:07:47.673Z,53.47
2018-05-12T00:08:47.749Z,53.42
2018-05-12T00:09:47.847Z,53.42
2018-05-12T00:10:47.752Z,53.44
2018-05-12T00:11:47.764Z,53.4
2018-05-12T00:12:47.770Z,53.45
2018-05-12T00:13:47.836Z,53.42
2018-05-12T00:14:47.784Z,53.4
2018-05-12T00:15:47.788Z,53.42
2018-05-12T00:16:47.831Z,53.42
2018-05-12T00:17:47.972Z,53.42
2018-05-12T00:18:47.880Z,53.48
2018-05-12T00:19:47.857Z,53.45
2018-05-12T00:20:47.839Z,53.43
2018-05-12T00:21:47.832Z,53.46
2018-05-12T00:22:47.820Z,53.43
2018-05-12T00:23:47.842Z,53.42
2018-05-12T00:24:47.888Z,53.45
2018-05-12T00:25:47.855Z,53.47
2018-05-12T00:26:47.877Z,53.43
2018-05-12T00:27:47.866Z,53.5
2018-05-12T00:28:47.886Z,53.43
2018-05-12T00:29:47.851Z,53.5
2018-05-12T00:30:47.893Z,53.49
2018-05-12T00:31:47.839Z,53.47
2018-05-12T00:32:47.906Z,53.47
2018-05-12T00:33:47.912Z,53.47
2018-05-12T00:34:47.912Z,53.46
2018-05-12T00:35:47.931Z,53.45
2018-05-12T00:36:47.941Z,53.5
2018-05-12T00:37:48.009Z,53.46
2018-05-12T00:38:47.953Z,53.42
2018-05-12T00:39:47.918Z,53.46
2018-05-12T00:40:47.830Z,53.48
2018-05-12T00:41:47.862Z,53.5
2018-05-12T00:42:47.918Z,53.52
2018-05-12T00:43:50.971Z,53.48
2018-05-12T00:44:47.835Z,53.48
2018-05-12T00:45:47.919Z,53.5
2018-05-12T00:46:47.858Z,53.49
2018-05-12T00:47:47.960Z,53.5
2018-05-12T00:48:48.049Z,53.51
2018-05-12T00:49:47.909Z,53.49
2018-05-12T00:50:47.994Z,53.46
2018-05-12T00:51:47.616Z,53.46
2018-05-12T00:52:47.549Z,53.5
2018-05-12T00:53:47.893Z,53.54
2018-05-12T00:54:47.546Z,53.6
2018-05-12T00:55:48.338Z,53.51
2018-05-12T00:56:48.008Z,53.5
2018-05-12T00:57:47.907Z,53.58
2018-05-12T00:58:48.044Z,53.55
2018-05-12T00:59:47.541Z,53.56
2018-05-12T01:00:48.042Z,53.55
2018-05-12T01:01:48.002Z,53.52
2018-05-12T01:02:48.113Z,53.5
2018-05-12T01:03:47.576Z,53.55
2018-05-12T01:04:47.967Z,53.5
2018-05-12T01:05:47.563Z,53.52
2018-05-12T01:06:47.647Z,53.6
2018-05-12T01:07:47.981Z,53.67
2018-05-12T01:08:48.003Z,53.65
2018-05-12T01:09:47.592Z,53.64
2018-05-12T01:10:48.103Z,53.6
2018-05-12T01:11:47.624Z,53.59
2018-05-12T01:12:48.157Z,53.58
2018-05-12T01:13:47.978Z,53.65
2018-05-12T01:14:47.608Z,53.64
2018-05-12T01:15:47.800Z,53.67
2018-05-12T01:16:47.664Z,53.65
2018-05-12T01:17:47.616Z,53.64
2018-05-12T01:18:47.530Z,53.62
2018-05-12T01:19:48.023Z,53.59
2018-05-12T01:20:47.675Z,53.57
2018-05-12T01:21:47.615Z,53.59
2018-05-12T01:22:47.748Z,53.57
2018-05-12T01:23:47.635Z,53.66
2018-05-12T01:24:47.691Z,53.61
2018-05-12T01:25:47.611Z,53.58
2018-05-12T01:26:47.574Z,53.68
2018-05-12T01:27:47.594Z,53.71
2018-05-12T01:28:47.807Z,53.76
2018-05-12T01:29:47.569Z,53.71
2018-05-12T01:30:47.622Z,53.68
2018-05-12T01:31:47.654Z,53.65
2018-05-12T01:32:47.653Z,53.71
2018-05-12T01:33:47.656Z,53.75
2018-05-12T01:34:47.609Z,53.73
2018-05-12T01:35:47.586Z,53.7
2018-05-12T01:36:47.556Z,53.63
2018-05-12T01:37:47.550Z,53.57
2018-05-12T01:38:47.710Z,53.58
2018-05-12T01:39:47.572Z,53.64
2018-05-12T01:40:47.600Z,53.63
2018-05-12T01:41:47.760Z,53.54
2018-05-12T01:42:47.627Z,53.59
2018-05-12T01:43:47.603Z,53.64
2018-05-12T01:44:47.550Z,53.7
2018-05-12T01:45:47.763Z,53.67
2018-05-12T01:46:47.526Z,53.66
2018-05-12T01:47:47.686Z,53.66
2018-05-12T01:48:47.763Z,53.57
2018-05-12T01:49:47.576Z,53.67
2018-05-12T01:50:47.714Z,53.72
2018-05-12T01:51:47.707Z,53.64
2018-05-12T01:52:47.603Z,53.65
2018-05-12T01:53:47.669Z,53.65
2018-05-12T01:54:47.801Z,53.67
2018-05-12T01:55:47.568Z,53.62
2018-05-12T01:56:47.668Z,53.69
2018-05-12T01:57:47.519Z,53.72
2018-05-12T01:58:47.673Z,53.67
2018-05-12T01:59:47.671Z,53.62
2018-05-12T02:00:47.732Z,53.65
2018-05-12T02:01:47.634Z,53.67
2018-05-12T02:02:47.529Z,53.72
2018-05-12T02:03:47.509Z,53.72
2018-05-12T02:04:47.565Z,53.72
2018-05-12T02:05:47.572Z,53.73
2018-05-12T02:06:47.722Z,53.73
2018-05-12T02:07:47.564Z,53.72
2018-05-12T02:08:47.848Z,53.67
2018-05-12T02:09:47.752Z,53.64
2018-05-12T02:10:47.582Z,53.71
2018-05-12T02:11:47.628Z,53.7
2018-05-12T02:12:47.774Z,53.66
2018-05-12T02:13:47.763Z,53.67
2018-05-12T02:14:47.578Z,53.73
2018-05-12T02:15:47.695Z,53.71
2018-05-12T02:16:47.519Z,53.67
2018-05-12T02:17:47.542Z,53.67
2018-05-12T02:18:47.624Z,53.66
2018-05-12T02:19:47.787Z,53.68
2018-05-12T02:20:47.611Z,53.71
2018-05-12T02:21:47.740Z,53.71
2018-05-12T02:22:47.527Z,53.6
2018-05-12T02:23:48.185Z,53.68
2018-05-12T02:24:47.580Z,53.68
2018-05-12T02:25:47.769Z,53.67
2018-05-12T02:26:47.810Z,53.68
2018-05-12T02:27:47.755Z,53.66
2018-05-12T02:28:47.761Z,53.68
2018-05-12T02:29:47.545Z,53.69
2018-05-12T02:30:47.672Z,53.65
2018-05-12T02:31:47.671Z,53.69
2018-05-12T02:32:47.610Z,53.71
2018-05-12T02:33:47.551Z,53.7
2018-05-12T02:34:47.696Z,53.63
2018-05-12T02:35:47.681Z,53.65
2018-05-12T02:36:47.611Z,53.57
2018-05-12T02:37:47.755Z,53.56
2018-05-12T02:38:47.605Z,53.63
2018-05-12T02:39:47.533Z,53.63
2018-05-12T02:40:47.813Z,53.64
2018-05-12T02:41:47.529Z,53.68
2018-05-12T02:42:47.531Z,53.64
2018-05-12T02:43:47.761Z,53.61
2018-05-12T02:44:47.730Z,53.72
2018-05-12T02:45:47.746Z,53.67
2018-05-12T02:46:47.682Z,53.59
2018-05-12T02:47:47.761Z,53.63
2018-05-12T02:48:47.765Z,53.63
2018-05-12T02:49:47.788Z,53.57
2018-05-12T02:50:47.832Z,53.51
2018-05-12T02:51:47.604Z,53.57
2018-05-12T02:52:47.546Z,53.57
2018-05-12T02:53:47.515Z,53.64
2018-05-12T02:54:47.630Z,53.67
2018-05-12T02:55:47.875Z,53.66
2018-05-12T02:56:47.750Z,53.62
2018-05-12T02:57:47.692Z,53.57
2018-05-12T02:58:47.748Z,53.57
2018-05-12T02:59:47.666Z,53.57
2018-05-12T03:00:47.503Z,53.59
2018-05-12T03:01:47.758Z,53.6
2018-05-12T03:02:47.637Z,53.63
2018-05-12T03:03:47.593Z,53.62
2018-05-12T03:04:47.602Z,53.62
2018-05-12T03:05:47.667Z,53.59
2018-05-12T03:06:47.709Z,53.57
2018-05-12T03:07:47.689Z,53.52
2018-05-12T03:08:47.653Z,53.57
2018-05-12T03:09:47.782Z,53.58
2018-05-12T03:10:47.745Z,53.62
2018-05-12T03:11:47.457Z,53.59
2018-05-12T03:12:47.580Z,53.6
2018-05-12T03:13:47.597Z,53.62
2018-05-12T03:14:47.614Z,53.63
2018-05-12T03:15:47.492Z,53.65
2018-05-12T03:16:47.549Z,53.64
2018-05-12T03:17:47.773Z,53.7
2018-05-12T03:18:47.748Z,53.68
2018-05-12T03:19:47.747Z,53.62
2018-05-12T03:20:47.680Z,53.55
2018-05-12T03:21:47.596Z,53.59
2018-05-12T03:22:47.616Z,53.54
2018-05-12T03:23:47.576Z,53.51
2018-05-12T03:24:47.790Z,53.57
2018-05-12T03:25:47.490Z,53.52
2018-05-12T03:26:47.590Z,53.55
2018-05-12T03:27:47.565Z,53.58
2018-05-12T03:28:47.565Z,53.55
2018-05-12T03:29:47.544Z,53.58
2018-05-12T03:30:47.723Z,53.61
2018-05-12T03:31:47.944Z,53.6
2018-05-12T03:32:47.879Z,53.56
2018-05-12T03:33:47.899Z,53.56
2018-05-12T03:34:48.014Z,53.56
2018-05-12T03:35:47.927Z,53.6
2018-05-12T03:36:48.105Z,53.58
2018-05-12T03:37:47.480Z,53.62
2018-05-12T03:38:47.464Z,53.62
2018-05-12T03:39:47.674Z,53.61
2018-05-12T03:40:47.954Z,53.55
2018-05-12T03:41:47.565Z,53.58
2018-05-12T03:42:47.913Z,53.53
2018-05-12T03:43:47.537Z,53.62
2018-05-12T03:44:47.926Z,53.6
2018-05-12T03:45:47.961Z,53.54
2018-05-12T03:46:48.009Z,53.54
2018-05-12T03:47:47.695Z,53.51
2018-05-12T03:48:48.000Z,53.55
2018-05-12T03:49:47.621Z,53.52
2018-05-12T03:50:47.519Z,53.58
2018-05-12T03:51:48.129Z,53.55
2018-05-12T03:52:47.706Z,53.53
2018-05-12T03:53:48.077Z,53.55
2018-05-12T03:54:47.740Z,53.57
2018-05-12T03:55:47.626Z,53.61
2018-05-12T03:56:47.628Z,53.56
2018-05-12T03:57:47.462Z,53.57
2018-05-12T03:58:47.544Z,53.56
2018-05-12T03:59:47.608Z,53.53
2018-05-12T04:00:47.611Z,53.54
2018-05-12T04:01:47.591Z,53.51
2018-05-12T04:02:47.678Z,53.57
2018-05-12T04:03:47.534Z,53.57
2018-05-12T04:04:47.543Z,53.6
2018-05-12T04:05:47.516Z,53.5
2018-05-12T04:06:47.654Z,53.53
2018-05-12T04:07:47.751Z,53.52
2018-05-12T04:08:47.611Z,53.66
2018-05-12T04:09:47.707Z,53.67
2018-05-12T04:10:47.451Z,53.64
2018-05-12T04:11:47.728Z,53.65
2018-05-12T04:12:47.719Z,53.56
2018-05-12T04:13:47.632Z,53.6
2018-05-12T04:14:47.664Z,53.51
2018-05-12T04:15:47.674Z,53.54
2018-05-12T04:16:47.500Z,53.58
2018-05-12T04:17:47.631Z,53.52
2018-05-12T04:18:47.624Z,53.53
2018-05-12T04:19:47.708Z,53.45
2018-05-12T04:20:47.473Z,53.45
2018-05-12T04:21:47.579Z,53.47
2018-05-12T04:22:47.607Z,53.43
2018-05-12T04:23:47.720Z,53.45
2018-05-12T04:24:47.632Z,53.53
2018-05-12T04:25:47.444Z,53.45
2018-05-12T04:26:47.489Z,53.47
2018-05-12T04:27:47.663Z,53.53
2018-05-12T04:28:47.558Z,53.53
2018-05-12T04:29:47.551Z,53.47
2018-05-12T04:30:47.623Z,53.52
2018-05-12T04:31:47.570Z,53.42
2018-05-12T04:32:47.686Z,53.45
2018-05-12T04:33:47.522Z,53.48
2018-05-12T04:34:47.593Z,53.51
2018-05-12T04:35:57.485Z,53.46
2018-05-12T04:36:47.699Z,53.46
2018-05-12T04:37:47.494Z,53.59
2018-05-12T04:38:47.438Z,53.51
2018-05-12T04:39:47.571Z,53.5
2018-05-12T04:40:47.525Z,53.6
2018-05-12T04:41:47.747Z,53.59
2018-05-12T04:42:47.741Z,53.6
2018-05-12T04:43:47.503Z,53.59
2018-05-12T04:44:47.763Z,53.64
2018-05-12T04:45:47.715Z,53.53
2018-05-12T04:46:47.466Z,53.5
2018-05-12T04:47:47.694Z,53.53
2018-05-12T04:48:47.421Z,53.6
2018-05-12T04:49:47.597Z,53.54
2018-05-12T04:50:47.642Z,53.56
2018-05-12T04:51:47.712Z,53.57
2018-05-12T04:52:47.767Z,53.46
2018-05-12T04:53:47.495Z,53.5
2018-05-12T04:54:47.541Z,53.61
2018-05-12T04:55:47.665Z,53.54
2018-05-12T04:56:47.521Z,53.63
2018-05-12T04:57:47.505Z,53.63
2018-05-12T04:58:47.586Z,53.56
2018-05-12T04:59:47.784Z,53.6
2018-05-12T05:00:47.487Z,53.59
2018-05-12T05:01:47.725Z,53.55
2018-05-12T05:02:47.551Z,53.52
2018-05-12T05:03:47.961Z,53.53
2018-05-12T05:04:47.786Z,53.54
2018-05-12T05:05:47.537Z,53.63
2018-05-12T05:06:47.563Z,53.59
2018-05-12T05:07:57.530Z,53.62
2018-05-12T05:08:47.898Z,53.65
2018-05-12T05:09:47.605Z,53.62
2018-05-12T05:10:47.849Z,53.53
2018-05-12T05:11:47.768Z,53.62
2018-05-12T05:12:47.576Z,53.59
2018-05-12T05:13:47.720Z,53.58
2018-05-12T05:14:47.543Z,53.61
2018-05-12T05:15:47.569Z,53.58
2018-05-12T05:16:47.526Z,53.43
2018-05-12T05:17:47.540Z,53.48
2018-05-12T05:18:47.666Z,53.5
2018-05-12T05:19:47.527Z,53.48
2018-05-12T05:20:47.408Z,53.38
2018-05-12T05:21:47.566Z,53.42
2018-05-12T05:22:47.504Z,53.45
2018-05-12T05:23:47.525Z,53.5
2018-05-12T05:24:47.556Z,53.53
2018-05-12T05:25:47.429Z,53.49
2018-05-12T05:26:47.614Z,53.64
2018-05-12T05:27:47.649Z,53.61
2018-05-12T05:28:47.695Z,53.5
2018-05-12T05:29:47.561Z,53.51
2018-05-12T05:30:47.455Z,53.53
2018-05-12T05:31:47.612Z,53.44
2018-05-12T05:32:47.612Z,53.5
2018-05-12T05:33:47.676Z,53.5
2018-05-12T05:34:47.548Z,53.51
2018-05-12T05:35:47.550Z,53.53
2018-05-12T05:36:47.539Z,53.5
2018-05-12T05:37:47.602Z,53.54
2018-05-12T05:38:47.584Z,53.6
2018-05-12T05:39:47.815Z,53.62
2018-05-12T05:40:47.470Z,53.64
2018-05-12T05:41:47.644Z,53.69
2018-05-12T05:42:47.480Z,53.65
2018-05-12T05:43:47.620Z,53.67
2018-05-12T05:44:47.549Z,53.72
2018-05-12T05:45:47.540Z,53.66
2018-05-12T05:46:47.692Z,53.6
2018-05-12T05:47:47.551Z,53.59
2018-05-12T05:48:47.609Z,53.69
2018-05-12T05:49:47.640Z,53.62
2018-05-12T05:50:47.838Z,53.72
2018-05-12T05:51:47.533Z,53.75
2018-05-12T05:52:47.750Z,53.71
2018-05-12T05:53:47.550Z,53.73
2018-05-12T05:54:47.592Z,53.63
2018-05-12T05:55:47.573Z,53.61
2018-05-12T05:56:47.574Z,53.49
2018-05-12T05:57:47.534Z,53.58
2018-05-12T05:58:47.462Z,53.52
2018-05-12T05:59:47.537Z,53.57
2018-05-12T06:00:47.611Z,53.63
2018-05-12T06:01:47.472Z,53.52
2018-05-12T06:02:47.600Z,53.72
2018-05-12T06:03:47.554Z,53.74
2018-05-12T06:04:47.551Z,53.69
2018-05-12T06:05:47.722Z,53.68
2018-05-12T06:06:48.310Z,53.64
2018-05-12T06:07:47.572Z,53.62
2018-05-12T06:08:47.552Z,53.6
2018-05-12T06:09:47.529Z,53.64
2018-05-12T06:10:47.763Z,53.64
2018-05-12T06:11:47.526Z,53.58
2018-05-12T06:12:47.661Z,53.65
2018-05-12T06:13:47.512Z,53.6
2018-05-12T06:14:47.548Z,53.63
2018-05-12T06:15:47.698Z,53.65
2018-05-12T06:16:47.458Z,53.56
2018-05-12T06:17:47.413Z,53.59
2018-05-12T06:18:47.535Z,53.64
2018-05-12T06:19:47.533Z,53.64
2018-05-12T06:20:47.647Z,53.66
2018-05-12T06:21:47.623Z,53.62
2018-05-12T06:22:47.623Z,53.57
2018-05-12T06:23:47.628Z,53.69
2018-05-12T06:24:47.640Z,53.59
2018-05-12T06:25:47.576Z,53.55
2018-05-12T06:26:47.769Z,53.67
2018-05-12T06:27:48.025Z,53.66
2018-05-12T06:28:47.574Z,53.58
2018-05-12T06:29:47.583Z,53.59
2018-05-12T06:30:47.609Z,53.57
2018-05-12T06:31:47.753Z,53.6
2018-05-12T06:32:47.610Z,53.69
2018-05-12T06:33:47.450Z,53.63
2018-05-12T06:34:47.470Z,53.6
2018-05-12T06:35:47.639Z,53.63
2018-05-12T06:36:47.425Z,53.6
2018-05-12T06:37:47.437Z,53.62
2018-05-12T06:38:47.589Z,53.55
2018-05-12T06:39:47.450Z,53.57
2018-05-12T06:40:47.592Z,53.55
2018-05-12T06:41:47.639Z,53.59
2018-05-12T06:42:47.488Z,53.53
2018-05-12T06:43:47.654Z,53.59
2018-05-12T06:44:47.419Z,53.59
2018-05-12T06:45:47.560Z,53.53
2018-05-12T06:46:47.623Z,53.55
2018-05-12T06:47:47.537Z,53.53
2018-05-12T06:48:47.831Z,53.58
2018-05-12T06:49:47.624Z,53.56
2018-05-12T06:50:47.620Z,53.55
2018-05-12T06:51:47.684Z,53.69
2018-05-12T06:52:48.396Z,53.58
2018-05-12T06:53:47.726Z,53.61
2018-05-12T06:54:47.726Z,53.54
2018-05-12T06:55:47.543Z,53.61
2018-05-12T06:56:47.652Z,53.6
2018-05-12T06:57:47.708Z,53.97
2018-05-12T06:58:47.662Z,53.75
2018-05-12T06:59:47.794Z,53.9
2018-05-12T07:00:47.601Z,53.9
2018-05-12T07:01:47.680Z,53.8
2018-05-12T07:02:48.249Z,53.7
2018-05-12T07:03:47.585Z,53.74
2018-05-12T07:04:47.752Z,53.61
2018-05-12T07:05:47.656Z,53.66
2018-05-12T07:06:47.521Z,53.59
2018-05-12T07:07:47.499Z,53.54
2018-05-12T07:08:47.706Z,53.56
2018-05-12T07:09:47.640Z,53.52
2018-05-12T07:10:47.699Z,53.49
2018-05-12T07:11:47.612Z,53.51
2018-05-12T07:12:47.587Z,53.47
2018-05-12T07:13:47.559Z,53.47
2018-05-12T07:14:47.661Z,53.44
2018-05-12T07:15:47.784Z,53.46
2018-05-12T07:16:47.783Z,53.5
2018-05-12T07:17:47.822Z,53.47
2018-05-12T07:18:47.765Z,53.52
2018-05-12T07:19:47.616Z,53.45
2018-05-12T07:20:47.868Z,53.51
2018-05-12T07:21:47.476Z,53.51
2018-05-12T07:22:47.645Z,53.45
2018-05-12T07:23:47.652Z,53.47
2018-05-12T07:24:47.713Z,53.48
2018-05-12T07:25:47.609Z,53.41
2018-05-12T07:26:47.600Z,53.49
2018-05-12T07:27:47.781Z,53.75
2018-05-12T07:28:47.515Z,53.75
2018-05-12T07:29:48.107Z,53.97
2018-05-12T07:30:47.740Z,54.16
2018-05-12T07:31:47.607Z,54.07
2018-05-12T07:32:47.809Z,54.1
2018-05-12T07:33:47.555Z,54.19
2018-05-12T07:34:47.616Z,54.2
2018-05-12T07:35:47.508Z,54.17
2018-05-12T07:36:47.658Z,54.26
2018-05-12T07:37:47.525Z,54.33
2018-05-12T07:38:47.506Z,54.26
2018-05-12T07:39:47.660Z,54.37
2018-05-12T07:40:47.674Z,54.27
2018-05-12T07:41:47.672Z,54.3
2018-05-12T07:42:47.569Z,54.36
2018-05-12T07:43:47.720Z,54.3
2018-05-12T07:44:47.555Z,54.33
2018-05-12T07:45:47.599Z,54.32
2018-05-12T07:46:47.731Z,54.32
2018-05-12T07:47:47.511Z,54.29
2018-05-12T07:48:47.669Z,54.29
2018-05-12T07:49:47.684Z,54.27
2018-05-12T07:50:47.477Z,54.31
2018-05-12T07:51:47.601Z,54.32
2018-05-12T07:52:47.505Z,54.31
2018-05-12T07:53:47.517Z,54.32
2018-05-12T07:54:47.715Z,54.31
2018-05-12T07:55:47.633Z,54.32
2018-05-12T07:56:47.698Z,54.3
2018-05-12T07:57:47.647Z,54.31
2018-05-12T07:58:47.736Z,54.34
2018-05-12T07:59:47.616Z,54.26
2018-05-12T08:00:47.643Z,54.35
2018-05-12T08:01:47.609Z,54.29
2018-05-12T08:02:47.774Z,54.35
2018-05-12T08:03:47.640Z,54.24
2018-05-12T08:04:47.572Z,54.14
2018-05-12T08:05:47.496Z,54.13
2018-05-12T08:06:47.709Z,54.16
2018-05-12T08:07:47.973Z,54.03
2018-05-12T08:08:47.868Z,54.09
2018-05-12T08:09:47.689Z,54.13
2018-05-12T08:10:47.582Z,54.09
2018-05-12T08:11:47.562Z,54.1
2018-05-12T08:12:48.381Z,54.03
2018-05-12T08:13:47.686Z,54.24
2018-05-12T08:14:47.514Z,54.24
2018-05-12T08:15:47.689Z,54.44
2018-05-12T08:16:47.549Z,54.51
2018-05-12T08:17:47.549Z,54.3
2018-05-12T08:18:47.632Z,54.35
2018-05-12T08:19:47.758Z,54.51
2018-05-12T08:20:47.789Z,54.45
2018-05-12T08:21:47.610Z,54.43
2018-05-12T08:22:47.604Z,54.53
2018-05-12T08:23:47.593Z,54.46
2018-05-12T08:24:47.783Z,54.59
2018-05-12T08:25:47.713Z,54.56
2018-05-12T08:26:48.263Z,54.6
2018-05-12T08:27:47.612Z,54.59
2018-05-12T08:28:47.674Z,54.54
2018-05-12T08:29:47.716Z,54.49
2018-05-12T08:30:47.700Z,54.53
2018-05-12T08:31:47.700Z,54.45
2018-05-12T08:32:47.624Z,54.45
2018-05-12T08:33:47.833Z,54.5
2018-05-12T08:34:47.594Z,54.48
2018-05-12T08:35:47.681Z,54.44
2018-05-12T08:36:47.751Z,54.45
2018-05-12T08:37:47.565Z,54.42
2018-05-12T08:38:47.524Z,54.37
2018-05-12T08:39:47.547Z,54.41
2018-05-12T08:40:47.568Z,54.4
2018-05-12T08:41:47.661Z,54.36
2018-05-12T08:42:47.700Z,54.33
2018-05-12T08:43:47.542Z,54.36
2018-05-12T08:44:47.676Z,54.27
2018-05-12T08:45:47.692Z,54.3
2018-05-12T08:46:49.037Z,54.28
2018-05-12T08:47:47.658Z,54.23
2018-05-12T08:48:47.490Z,54.26
2018-05-12T08:49:47.668Z,54.26
2018-05-12T08:50:47.632Z,54.18
2018-05-12T08:51:47.623Z,54.26
2018-05-12T08:52:47.698Z,54.2
2018-05-12T08:53:47.532Z,54.24
2018-05-12T08:54:47.603Z,54.31
2018-05-12T08:55:47.546Z,54.19
2018-05-12T08:56:47.555Z,54.28
2018-05-12T08:57:47.462Z,54.37
2018-05-12T08:58:47.680Z,54.17
2018-05-12T08:59:47.639Z,54.16
2018-05-12T09:00:47.514Z,54.11
2018-05-12T09:01:47.639Z,54.02
2018-05-12T09:02:47.475Z,54.05
2018-05-12T09:03:47.665Z,54.07
2018-05-12T09:04:47.643Z,54.07
2018-05-12T09:05:47.709Z,54.17
2018-05-12T09:06:47.720Z,54.29
2018-05-12T09:07:47.839Z,54.51
2018-05-12T09:08:47.712Z,54.41
2018-05-12T09:09:47.624Z,54.49
2018-05-12T09:10:47.533Z,54.53
2018-05-12T09:11:47.653Z,54.47
2018-05-12T09:12:47.651Z,54.59
2018-05-12T09:13:47.628Z,54.59
2018-05-12T09:14:47.482Z,54.58
2018-05-12T09:15:47.540Z,54.64
2018-05-12T09:16:47.512Z,54.65
2018-05-12T09:17:47.733Z,54.65
2018-05-12T09:18:47.671Z,54.73
2018-05-12T09:19:47.542Z,54.76
2018-05-12T09:20:47.550Z,54.7
2018-05-12T09:21:47.688Z,54.73
2018-05-12T09:22:47.654Z,54.7
2018-05-12T09:23:47.498Z,54.65
2018-05-12T09:24:47.564Z,54.76
2018-05-12T09:25:47.688Z,54.65
2018-05-12T09:26:47.772Z,54.64
2018-05-12T09:27:47.626Z,54.72
2018-05-12T09:28:47.552Z,54.71
2018-05-12T09:29:47.509Z,54.8
2018-05-12T09:30:47.677Z,54.76
2018-05-12T09:31:47.600Z,54.76
2018-05-12T09:32:47.651Z,54.73
2018-05-12T09:33:47.554Z,54.77
2018-05-12T09:34:47.550Z,54.73
2018-05-12T09:35:47.623Z,54.7
2018-05-12T09:36:47.757Z,54.71
2018-05-12T09:37:47.795Z,54.64
2018-05-12T09:38:47.797Z,54.87
2018-05-12T09:39:47.816Z,54.86
2018-05-12T09:40:47.646Z,54.7
2018-05-12T09:41:47.833Z,54.83
2018-05-12T09:42:47.649Z,54.92
2018-05-12T09:43:47.616Z,54.84
2018-05-12T09:44:48.389Z,54.8
2018-05-12T09:45:47.608Z,54.82
2018-05-12T09:46:47.519Z,54.75
2018-05-12T09:47:47.640Z,54.72
2018-05-12T09:48:47.663Z,54.84
2018-05-12T09:49:47.794Z,54.77
2018-05-12T09:50:47.680Z,54.79
2018-05-12T09:51:47.499Z,54.97
2018-05-12T09:52:47.700Z,55.03
2018-05-12T09:53:47.764Z,55.01
2018-05-12T09:54:47.758Z,55.19
2018-05-12T09:55:47.822Z,55.09
2018-05-12T09:56:47.644Z,55.07
2018-05-12T09:57:45.110Z,55.68
2018-05-12T09:58:45.235Z,54.99
2018-05-12T09:59:45.191Z,55.11
2018-05-12T10:00:45.448Z,55.14
2018-05-12T10:01:45.288Z,55.33
2018-05-12T10:02:45.488Z,55.15
2018-05-12T10:03:45.600Z,55.17
2018-05-12T10:04:45.348Z,55.32
2018-05-12T10:05:45.428Z,55.45
2018-05-12T10:06:45.303Z,55.3
2018-05-12T10:07:45.391Z,55.3
2018-05-12T10:08:45.703Z,55.25
2018-05-12T10:09:45.554Z,55.15
2018-05-12T10:10:45.481Z,55.19
2018-05-12T10:11:45.602Z,55.23
2018-05-12T10:12:46.436Z,55.24
2018-05-12T10:13:45.623Z,55.24
2018-05-12T10:14:45.667Z,55.34
2018-05-12T10:15:45.640Z,55.27
2018-05-12T10:16:45.570Z,55.42
2018-05-12T10:17:45.477Z,55.22
2018-05-12T10:18:45.706Z,55.3
2018-05-12T10:19:45.522Z,55.32
2018-05-12T10:20:45.367Z,55.24
2018-05-12T10:21:45.450Z,55.29
2018-05-12T10:22:45.703Z,55.21
2018-05-12T10:23:45.510Z,55.17
2018-05-12T10:24:45.484Z,55.19
2018-05-12T10:25:45.296Z,55.07
2018-05-12T10:26:45.395Z,55
2018-05-12T10:27:45.198Z,55.03
2018-05-12T10:28:45.465Z,55.21
2018-05-12T10:29:45.476Z,54.77
2018-05-12T10:30:45.221Z,54.61
2018-05-12T10:31:45.231Z,54.74
2018-05-12T10:32:45.317Z,54.65
2018-05-12T10:33:45.509Z,54.7
2018-05-12T10:34:45.383Z,54.84
2018-05-12T10:35:45.391Z,54.73
2018-05-12T10:36:45.383Z,54.38
2018-05-12T10:37:45.321Z,54.59
2018-05-12T10:38:45.347Z,54.68
2018-05-12T10:39:45.350Z,54.58
2018-05-12T10:40:45.412Z,54.5
2018-05-12T10:41:45.378Z,55.59
2018-05-12T10:42:45.576Z,54.4
2018-05-12T10:43:45.365Z,54.2
2018-05-12T10:44:46.213Z,54.33
2018-05-12T10:45:45.406Z,54.51
2018-05-12T11:59:37.562Z,24.02
2018-05-12T12:00:37.890Z,25.2
2018-05-12T12:01:37.451Z,28.45
2018-05-12T12:02:37.844Z,30.24
2018-05-12T12:03:38.315Z,31.95
2018-05-12T12:04:37.740Z,33.61
2018-05-12T12:05:37.665Z,35.03
2018-05-12T12:06:37.881Z,36.24
2018-05-12T12:07:37.613Z,37.22
2018-05-12T12:08:37.629Z,38.53
2018-05-12T12:09:37.672Z,39.61
2018-05-12T12:10:37.514Z,40.31
2018-05-12T12:11:37.702Z,41.12
2018-05-12T12:12:37.671Z,41.99
2018-05-12T12:13:37.807Z,42.46
2018-05-12T12:14:37.565Z,43.05
2018-05-12T12:15:37.679Z,43.83
2018-05-12T12:16:38.333Z,44.26
2018-05-12T12:17:37.714Z,44.72
2018-05-12T12:18:37.680Z,45.38
2018-05-12T12:19:37.603Z,45.88
2018-05-12T12:20:37.729Z,45.35
2018-05-12T12:21:37.600Z,46.84
2018-05-12T12:22:37.609Z,47.06
2018-05-12T12:23:37.795Z,47.27
2018-05-12T12:24:37.668Z,47.15
2018-05-12T12:25:37.588Z,47.02
2018-05-12T12:26:37.664Z,47.01
2018-05-12T12:27:37.758Z,48.08
2018-05-12T12:28:37.603Z,48.19
2018-05-12T12:29:37.875Z,47.47
2018-05-12T12:30:37.716Z,48.58
2018-05-12T12:31:37.895Z,48.64
2018-05-12T12:32:37.824Z,47.11
2018-05-12T12:33:37.672Z,48.64
2018-05-12T12:34:38.055Z,49
2018-05-12T12:35:38.015Z,48.58
2018-05-12T12:36:37.852Z,49.33
2018-05-12T12:37:37.724Z,50
2018-05-12T12:38:37.640Z,50.12
2018-05-12T12:40:09.234Z,50.1
2018-05-12T12:40:37.573Z,50.16
2018-05-12T12:41:37.639Z,49.9
2018-05-12T12:42:37.827Z,50.18
2018-05-12T12:43:37.844Z,48.37
2018-05-12T12:44:37.702Z,48.55
2018-05-12T12:45:37.704Z,50.66
2018-05-12T12:46:37.617Z,49.58
2018-05-12T12:47:37.871Z,49.5
2018-05-12T12:48:37.701Z,50.83
2018-05-12T12:49:37.636Z,50.51
2018-05-12T12:50:37.602Z,50.75
2018-05-12T12:51:38.313Z,50.9
2018-05-12T12:52:38.019Z,50.4
2018-05-12T12:53:37.597Z,51.41
2018-05-12T12:54:37.568Z,51.75
2018-05-12T12:55:37.790Z,51.75
2018-05-12T12:56:37.609Z,50.88
2018-05-12T12:57:37.793Z,51.47
2018-05-12T12:58:37.613Z,49.17
2018-05-12T12:59:37.697Z,49.76
2018-05-12T13:00:37.831Z,51.61
2018-05-12T13:01:37.737Z,50.58
2018-05-12T13:02:37.772Z,51.51
2018-05-12T13:03:37.805Z,51.8
2018-05-12T13:04:37.841Z,50.58
2018-05-12T13:05:37.822Z,49.89
2018-05-12T13:06:37.588Z,51.55
2018-05-12T13:07:37.683Z,50.62
2018-05-12T13:08:37.911Z,50.85
2018-05-12T13:09:37.639Z,51.7
2018-05-12T13:10:37.734Z,51.22
2018-05-12T13:11:37.593Z,51.74
2018-05-12T13:12:37.672Z,51.42
2018-05-12T13:13:37.918Z,50.42
2018-05-12T13:14:37.633Z,50.61
2018-05-12T13:15:37.818Z,51.2
2018-05-12T13:16:37.866Z,51.35
2018-05-12T13:17:37.578Z,51.33
2018-05-12T13:18:37.801Z,52.16
2018-05-12T13:19:37.840Z,50.33
2018-05-12T13:20:37.772Z,51.37
2018-05-12T13:21:38.395Z,52.08
2018-05-12T13:22:37.728Z,52.04
2018-05-12T13:23:38.111Z,51.35
2018-05-12T13:24:37.659Z,52.08
2018-05-12T13:25:37.889Z,51.69
2018-05-12T13:26:37.643Z,52
2018-05-12T13:27:37.530Z,52.33
2018-05-12T13:28:37.924Z,51.66
2018-05-12T13:29:37.632Z,51.91
2018-05-12T13:30:37.740Z,52.4
2018-05-12T13:31:37.834Z,51.23
2018-05-12T13:32:37.522Z,51.86
2018-05-12T13:33:38.619Z,52.57
2018-05-12T13:34:37.932Z,52.83
2018-05-12T13:35:37.654Z,51.12
2018-05-12T13:36:37.554Z,52.36
2018-05-12T13:37:37.450Z,52.35
2018-05-12T13:38:37.565Z,51.86
2018-05-12T13:39:37.639Z,52.64
2018-05-12T13:40:37.870Z,51.57
2018-05-12T13:41:37.827Z,51.51
2018-05-12T13:42:37.565Z,52.66
2018-05-12T13:43:37.723Z,52.09
2018-05-12T13:44:37.678Z,51.99
2018-05-12T13:45:47.601Z,52.22
2018-05-12T13:46:37.721Z,52.7
2018-05-12T13:47:37.772Z,52.05
2018-05-12T13:48:37.825Z,52.44
2018-05-12T13:49:37.638Z,52.93
2018-05-12T13:50:37.671Z,53.17
2018-05-12T13:51:37.666Z,52.67
2018-05-12T13:52:37.604Z,52.72
2018-05-12T13:53:37.781Z,52.73
2018-05-12T13:54:37.733Z,52.98
2018-05-12T13:55:38.276Z,52.61
2018-05-12T13:56:37.768Z,53.29
2018-05-12T13:57:37.697Z,53.12
2018-05-12T13:58:37.790Z,52.47
2018-05-12T13:59:37.790Z,52.85
2018-05-12T14:00:37.603Z,52.34
2018-05-12T14:01:37.661Z,52.31
2018-05-12T14:02:37.833Z,52.38
2018-05-12T14:03:37.843Z,52.86
2018-05-12T14:04:37.674Z,52.91
2018-05-12T14:05:37.738Z,52.29
2018-05-12T14:06:37.717Z,53.1
2018-05-12T14:07:37.605Z,53.11
2018-05-12T14:08:37.914Z,52.6
2018-05-12T14:09:37.702Z,52.83